Time;durP1;ratioP1;P1;durP2;ratioP2;P2;SDS_P1;SDS_P2;PMS_P1;PMS_P2;Temp;Humidity;BMP_temperature;BMP_pressure;BME280_temperature;BME280_humidity;BME280_pressure;Samples;Min_cycle;Max_cycle;Signal;HPM_P1;HPM_P2
2023/12/28 00:00:03;;;;;;;2.35;1.65;;;;;;;7.11;100.00;98061.97;6104831;19;20435;-71
2023/12/28 00:02:04;;;;;;;2.40;1.65;;;;;;;7.19;100.00;98052.69;6102959;19;20813;-71
2023/12/28 00:04:04;;;;;;;3.45;2.25;;;;;;;7.15;100.00;98041.63;6103870;19;20007;-71
2023/12/28 00:06:05;;;;;;;2.97;1.88;;;;;;;7.19;95.75;98049.94;6103105;19;20002;-71
2023/12/28 00:08:05;;;;;;;2.65;1.60;;;;;;;7.19;100.00;98036.19;6102661;19;20014;-71
2023/12/28 00:10:06;;;;;;;2.30;1.63;;;;;;;7.17;98.54;98039.31;6110520;19;20030;-71
2023/12/28 00:12:07;;;;;;;2.67;1.52;;;;;;;7.31;100.00;98025.81;6107815;19;20009;-71
2023/12/28 00:14:07;;;;;;;2.92;1.55;;;;;;;7.27;98.75;98018.63;6108515;19;20493;-71
2023/12/28 00:16:07;;;;;;;2.83;1.70;;;;;;;7.12;100.00;98031.38;6109213;19;20007;-71
2023/12/28 00:18:08;;;;;;;2.63;1.50;;;;;;;7.13;96.94;98032.97;6109618;19;20230;-71
2023/12/28 00:20:09;;;;;;;2.42;1.67;;;;;;;7.06;100.00;98024.56;6111122;19;20006;-71
2023/12/28 00:22:09;;;;;;;1.83;1.40;;;;;;;7.23;95.65;98017.78;6110020;19;20018;-71
2023/12/28 00:24:10;;;;;;;2.35;1.50;;;;;;;7.40;94.56;98042.06;6110434;19;20006;-72
2023/12/28 00:26:10;;;;;;;2.85;1.80;;;;;;;7.56;93.26;98019.91;6109235;19;20003;-71
2023/12/28 00:28:10;;;;;;;2.88;1.60;;;;;;;7.63;92.34;98050.31;6110523;19;20009;-71
2023/12/28 00:30:11;;;;;;;1.95;1.30;;;;;;;7.67;91.70;98033.84;6111115;19;20003;-71
2023/12/28 00:32:11;;;;;;;2.15;1.67;;;;;;;7.56;93.48;98036.44;6109232;19;20004;-71
2023/12/28 00:34:12;;;;;;;2.33;1.50;;;;;;;7.45;99.94;98038.22;6108747;19;20002;-71
2023/12/28 00:36:12;;;;;;;2.47;1.40;;;;;;;7.52;93.69;98039.09;6110521;19;20645;-71
2023/12/28 00:38:12;;;;;;;2.42;1.60;;;;;;;7.62;91.10;98036.91;6110319;19;20011;-71
2023/12/28 00:40:12;;;;;;;2.63;1.60;;;;;;;7.54;94.08;98033.25;6110670;19;20009;-71
2023/12/28 00:42:13;;;;;;;2.75;1.60;;;;;;;7.54;92.45;98025.00;6109749;19;20227;-71
2023/12/28 00:44:13;;;;;;;2.67;1.70;;;;;;;7.52;91.59;98028.09;6108075;19;20019;-71
2023/12/28 00:46:14;;;;;;;1.75;1.52;;;;;;;7.69;88.58;98045.28;6109575;19;20506;-71
2023/12/28 00:48:14;;;;;;;2.97;1.50;;;;;;;7.79;90.44;98052.94;6109886;19;20070;-71
2023/12/28 00:50:15;;;;;;;2.65;1.45;;;;;;;7.79;93.27;98052.94;6100973;19;20482;-71
2023/12/28 00:52:15;;;;;;;2.00;1.42;;;;;;;7.70;92.31;98050.44;6101184;19;20010;-71
2023/12/28 00:54:16;;;;;;;1.60;1.40;;;;;;;7.68;92.48;98065.72;6100399;19;20003;-71
2023/12/28 00:56:16;;;;;;;3.10;1.60;;;;;;;7.73;90.36;98060.69;6101524;19;20350;-71
2023/12/28 00:58:16;;;;;;;2.33;1.70;;;;;;;7.78;89.55;98063.16;6101016;19;20028;-71
2023/12/28 01:00:17;;;;;;;3.25;1.67;;;;;;;7.72;95.77;98061.88;6102243;19;20078;-71
2023/12/28 01:02:17;;;;;;;2.05;1.42;;;;;;;7.68;94.58;98051.94;6099414;19;20345;-71
2023/12/28 01:04:18;;;;;;;2.20;1.55;;;;;;;7.64;93.85;98057.41;6101942;19;19999;-71
2023/12/28 01:06:18;;;;;;;4.35;1.92;;;;;;;7.69;95.48;98059.84;6100438;19;20411;-71
2023/12/28 01:08:19;;;;;;;2.58;1.52;;;;;;;7.80;89.15;98049.00;6102017;19;20005;-71
2023/12/28 01:10:19;;;;;;;3.33;1.60;;;;;;;7.85;90.53;98057.72;6101032;19;20003;-71
2023/12/28 01:12:19;;;;;;;1.70;1.30;;;;;;;7.73;93.61;98063.44;6101187;19;20535;-71
2023/12/28 01:14:20;;;;;;;3.13;1.60;;;;;;;7.73;93.91;98066.22;6100797;19;20313;-71
2023/12/28 01:16:20;;;;;;;2.85;1.73;;;;;;;7.74;93.40;98051.28;6101384;19;20439;-71
2023/12/28 01:18:22;;;;;;;1.88;1.30;;;;;;;7.80;90.01;98069.06;6100954;19;20018;-71
2023/12/28 01:20:22;;;;;;;2.53;1.50;;;;;;;7.78;99.94;98071.41;6101046;19;20566;-71
2023/12/28 01:22:22;;;;;;;1.98;1.70;;;;;;;7.58;97.23;98067.13;6100427;19;20018;-71
2023/12/28 01:24:24;;;;;;;2.03;1.58;;;;;;;7.76;91.77;98093.00;6100935;19;20013;-71
2023/12/28 01:26:24;;;;;;;3.28;1.38;;;;;;;7.67;92.72;98088.91;6100685;19;20010;-71
2023/12/28 01:28:25;;;;;;;3.08;1.60;;;;;;;7.67;93.93;98080.66;6100520;19;20631;-71
2023/12/28 01:30:26;;;;;;;1.70;1.50;;;;;;;7.73;91.28;98096.50;6101381;19;20003;-71
2023/12/28 01:32:26;;;;;;;3.63;2.05;;;;;;;7.71;94.90;98085.06;6100184;19;20018;-71
2023/12/28 01:34:26;;;;;;;2.08;1.48;;;;;;;7.69;92.67;98097.59;6099267;19;20007;-71
2023/12/28 01:36:29;;;;;;;2.70;1.70;;;;;;;7.72;92.82;98103.16;6102434;19;20014;-71
2023/12/28 01:38:29;;;;;;;;;;;;;;;7.70;93.84;98110.22;6102186;19;20013;-71
2023/12/28 01:40:29;;;;;;;2.83;1.80;;;;;;;7.67;97.31;98094.41;6100981;19;20495;-71
2023/12/28 01:42:31;;;;;;;2.25;1.63;;;;;;;7.66;94.63;98101.88;6100209;19;20319;-71
2023/12/28 01:44:31;;;;;;;3.45;1.70;;;;;;;7.57;99.64;98117.84;6102838;19;20007;-71
2023/12/28 01:46:33;;;;;;;3.58;1.73;;;;;;;7.53;95.53;98109.53;6102426;19;20014;-71
2023/12/28 01:48:33;;;;;;;2.50;1.55;;;;;;;7.57;94.64;98107.63;6100667;19;20498;-71
2023/12/28 01:50:34;;;;;;;2.78;1.77;;;;;;;7.56;97.39;98094.25;6111308;19;20311;-71
2023/12/28 01:52:35;;;;;;;3.45;2.05;;;;;;;7.63;94.60;98094.38;6109219;19;20003;-71
2023/12/28 01:54:37;;;;;;;3.70;1.67;;;;;;;7.63;96.46;98097.13;6109067;19;20029;-71
2023/12/28 01:56:38;;;;;;;2.28;1.70;;;;;;;7.64;98.68;98104.22;6109515;19;20362;-71
2023/12/28 01:58:40;;;;;;;2.00;1.63;;;;;;;7.68;94.96;98096.78;6109714;19;20010;-71
2023/12/28 02:00:42;;;;;;;2.72;1.77;;;;;;;7.60;100.00;98095.09;6110416;19;20027;-71
2023/12/28 02:02:44;;;;;;;2.05;1.73;;;;;;;7.59;100.00;98099.78;6108383;19;20351;-71
2023/12/28 02:04:45;;;;;;;2.47;1.63;;;;;;;7.67;98.03;98094.41;6109845;19;20012;-71
2023/12/28 02:06:45;;;;;;;2.67;1.65;;;;;;;7.58;100.00;98087.19;6109982;19;20750;-71
2023/12/28 02:08:45;;;;;;;2.85;1.77;;;;;;;7.72;96.48;98102.38;6107810;19;20577;-71
2023/12/28 02:10:46;;;;;;;2.97;1.70;;;;;;;7.79;97.38;98105.25;6110245;19;20564;-71
2023/12/28 02:12:47;;;;;;;2.40;1.55;;;;;;;7.78;98.36;98103.66;6109589;19;20022;-71
2023/12/28 02:14:48;;;;;;;2.25;1.38;;;;;;;7.71;100.00;98100.78;6108902;19;20010;-71
2023/12/28 02:16:53;;;;;;;3.85;1.80;;;;;;;7.72;98.87;98092.16;6108777;19;20651;-71
2023/12/28 02:18:57;;;;;;;2.50;1.88;;;;;;;7.76;99.48;98105.97;6109846;19;20010;-71
2023/12/28 02:20:58;;;;;;;2.65;1.60;;;;;;;7.69;99.38;98114.09;6109661;19;20348;-71
2023/12/28 02:22:58;;;;;;;2.40;1.73;;;;;;;7.82;98.51;98105.28;6108355;19;20390;-71
2023/12/28 02:25:08;;;;;;;1.90;1.50;;;;;;;7.97;99.13;98119.31;6108858;19;20065;-71
2023/12/28 02:27:09;;;;;;;2.58;1.63;;;;;;;8.02;98.75;98114.25;6108779;19;20010;-71
2023/12/28 02:29:09;;;;;;;2.28;1.70;;;;;;;7.97;100.00;98108.28;6109065;19;20011;-71
2023/12/28 02:31:37;;;;;;;2.10;1.65;;;;;;;7.89;100.00;98123.91;6107107;19;20018;-71
2023/12/28 02:33:57;;;;;;;2.55;1.83;;;;;;;7.91;100.00;98116.06;6106477;19;20646;-71
2023/12/28 02:36:02;;;;;;;2.25;1.80;;;;;;;7.94;100.00;98144.81;6108445;19;20014;-71
2023/12/28 02:38:06;;;;;;;3.75;1.98;;;;;;;8.00;100.00;98108.34;6106820;19;20007;-71
2023/12/28 02:40:07;;;;;;;2.30;1.70;;;;;;;8.03;100.00;98118.63;6108223;19;20020;-71
2023/12/28 02:42:08;;;;;;;2.95;1.95;;;;;;;8.04;100.00;98127.69;6107271;19;20003;-71
2023/12/28 02:44:08;;;;;;;2.92;1.80;;;;;;;7.98;100.00;98124.44;6108313;19;20003;-71
2023/12/28 02:46:08;;;;;;;2.53;1.90;;;;;;;7.96;100.00;98140.56;6108099;19;20436;-71
2023/12/28 02:48:09;;;;;;;2.97;2.08;;;;;;;8.02;100.00;98132.75;6106396;19;20002;-71
2023/12/28 02:50:09;;;;;;;2.20;1.80;;;;;;;8.06;100.00;98152.91;6107835;19;20014;-71
2023/12/28 02:52:09;;;;;;;2.97;1.95;;;;;;;8.03;100.00;98145.38;6107204;19;20001;-71
2023/12/28 02:54:10;;;;;;;3.53;2.10;;;;;;;8.00;100.00;98127.63;6107931;19;20070;-71
2023/12/28 02:56:10;;;;;;;2.75;1.85;;;;;;;7.97;100.00;98109.09;6107307;19;20022;-71
2023/12/28 02:58:10;;;;;;;5.25;2.97;;;;;;;8.00;100.00;98126.81;6108401;19;19998;-71
2023/12/28 03:00:11;;;;;;;3.25;1.98;;;;;;;8.00;100.00;98115.81;6107294;19;19999;-71
2023/12/28 03:02:12;;;;;;;3.13;1.80;;;;;;;7.93;100.00;98124.75;6105283;19;20499;-71
2023/12/28 03:04:12;;;;;;;2.50;1.90;;;;;;;7.89;100.00;98130.22;6107512;19;20006;-71
2023/12/28 03:06:13;;;;;;;3.72;2.03;;;;;;;7.92;100.00;98136.94;6107801;19;20455;-71
2023/12/28 03:08:13;;;;;;;3.40;2.05;;;;;;;8.01;100.00;98128.41;6107242;19;20381;-71
2023/12/28 03:10:14;;;;;;;2.88;2.00;;;;;;;8.00;100.00;98130.38;6108879;19;20342;-71
2023/12/28 03:12:16;;;;;;;3.17;1.83;;;;;;;7.92;100.00;98128.66;6106813;19;20085;-71
2023/12/28 03:14:16;;;;;;;3.80;2.25;;;;;;;7.92;100.00;98141.66;6107789;19;20644;-71
2023/12/28 03:16:17;;;;;;;5.40;2.10;;;;;;;7.84;100.00;98141.53;6106960;19;20392;-71
2023/12/28 03:18:17;;;;;;;2.47;1.90;;;;;;;7.86;100.00;98146.66;6108082;19;20007;-71
2023/12/28 03:20:17;;;;;;;3.45;1.85;;;;;;;7.88;100.00;98139.63;6106779;19;20059;-71
2023/12/28 03:22:17;;;;;;;3.50;2.35;;;;;;;7.89;100.00;98143.97;6104656;19;20073;-71
2023/12/28 03:24:18;;;;;;;3.20;2.17;;;;;;;7.84;100.00;98137.97;6107610;19;20414;-71
2023/12/28 03:26:18;;;;;;;2.65;1.77;;;;;;;7.79;100.00;98119.81;6107592;19;20403;-71
2023/12/28 03:28:18;;;;;;;3.72;2.30;;;;;;;7.77;100.00;98126.84;6106830;19;20075;-71
2023/12/28 03:30:19;;;;;;;2.80;2.00;;;;;;;7.75;100.00;98140.19;6107411;19;20010;-71
2023/12/28 03:32:19;;;;;;;7.05;2.30;;;;;;;7.70;100.00;98143.25;6107157;19;20007;-72
2023/12/28 03:34:19;;;;;;;3.75;2.63;;;;;;;7.62;100.00;98141.53;6107238;19;20003;-72
2023/12/28 03:36:20;;;;;;;4.97;2.47;;;;;;;7.58;100.00;98141.47;6106082;19;20026;-71
2023/12/28 03:38:21;;;;;;;3.63;2.40;;;;;;;7.59;100.00;98138.34;6107604;19;21477;-71
2023/12/28 03:40:21;;;;;;;4.25;2.80;;;;;;;7.51;100.00;98138.59;6107628;19;20002;-72
2023/12/28 03:42:22;;;;;;;4.10;2.35;;;;;;;7.52;100.00;98143.72;6106397;19;20022;-71
2023/12/28 03:44:22;;;;;;;6.93;2.15;;;;;;;7.46;100.00;98139.69;6113272;19;20475;-71
2023/12/28 03:46:22;;;;;;;4.95;2.60;;;;;;;7.41;100.00;98119.91;6111955;19;19998;-71
2023/12/28 03:48:23;;;;;;;3.08;2.20;;;;;;;7.44;100.00;98119.19;6112032;19;20010;-71
2023/12/28 03:50:23;;;;;;;3.55;2.22;;;;;;;7.33;100.00;98107.97;6112304;19;20505;-71
2023/12/28 03:52:26;;;;;;;2.97;2.10;;;;;;;7.28;100.00;98113.78;6107452;19;20018;-71
2023/12/28 03:54:26;;;;;;;3.67;2.38;;;;;;;7.23;100.00;98127.84;6112690;19;20328;-71
2023/12/28 03:56:27;;;;;;;3.63;2.47;;;;;;;7.16;100.00;98112.00;6111685;19;20003;-71
2023/12/28 03:58:28;;;;;;;5.53;2.92;;;;;;;7.17;100.00;98121.84;6112716;19;20007;-71
2023/12/28 04:00:28;;;;;;;4.40;2.78;;;;;;;7.10;100.00;98121.69;6112545;19;20482;-71
2023/12/28 04:02:31;;;;;;;3.20;2.45;;;;;;;7.09;100.00;98113.81;6110721;19;20019;-71
2023/12/28 04:04:31;;;;;;;3.97;3.03;;;;;;;7.08;100.00;98124.03;6111512;19;20044;-71
2023/12/28 04:06:31;;;;;;;4.82;2.50;;;;;;;7.09;100.00;98111.06;6112336;19;20007;-71
2023/12/28 04:08:32;;;;;;;4.47;2.72;;;;;;;7.06;100.00;98109.06;6112063;19;20014;-71
2023/12/28 04:10:33;;;;;;;4.68;2.67;;;;;;;7.12;100.00;98122.16;6111944;19;20006;-71
2023/12/28 04:12:33;;;;;;;3.25;2.45;;;;;;;7.12;100.00;98127.66;6111771;19;20013;-71
2023/12/28 04:14:33;;;;;;;3.08;2.35;;;;;;;7.13;100.00;98142.22;6111553;19;20009;-71
2023/12/28 04:16:34;;;;;;;4.15;2.80;;;;;;;7.07;100.00;98143.66;6112676;19;20010;-71
2023/12/28 04:18:34;;;;;;;3.72;2.50;;;;;;;7.00;100.00;98149.81;6110703;19;20002;-71
2023/12/28 04:20:34;;;;;;;4.20;2.58;;;;;;;6.98;100.00;98149.38;6112834;19;20114;-71
2023/12/28 04:22:35;;;;;;;8.13;2.83;;;;;;;6.98;100.00;98158.41;6110864;19;20023;-71
2023/12/28 04:24:36;;;;;;;6.95;3.45;;;;;;;7.01;100.00;98176.16;6111413;19;20329;-71
2023/12/28 04:26:37;;;;;;;5.05;2.55;;;;;;;7.00;100.00;98180.06;6110865;19;20352;-71
2023/12/28 04:28:37;;;;;;;4.90;2.60;;;;;;;7.06;100.00;98180.56;6111586;19;20705;-71
2023/12/28 04:30:37;;;;;;;3.47;2.55;;;;;;;7.05;100.00;98196.28;6111486;19;20364;-71
2023/12/28 04:32:39;;;;;;;4.85;2.95;;;;;;;6.96;100.00;98176.44;6111473;19;20006;-71
2023/12/28 04:34:39;;;;;;;5.07;3.05;;;;;;;7.05;100.00;98196.28;6111486;19;20014;-71
2023/12/28 04:36:43;;;;;;;4.05;3.05;;;;;;;6.96;100.00;98191.00;6111229;19;20014;-71
2023/12/28 04:38:43;;;;;;;4.47;2.67;;;;;;;6.90;100.00;98186.94;6111800;19;20038;-71
2023/12/28 04:40:44;;;;;;;5.70;2.80;;;;;;;6.92;100.00;98186.56;6113254;19;20019;-71
2023/12/28 04:42:44;;;;;;;4.13;2.45;;;;;;;6.92;100.00;98197.56;6111318;19;20353;-71
2023/12/28 04:44:44;;;;;;;5.55;3.10;;;;;;;6.89;100.00;98204.59;6112246;19;20407;-71
2023/12/28 04:46:45;;;;;;;4.78;3.00;;;;;;;6.89;100.00;98187.31;6110967;19;20017;-71
2023/12/28 04:48:46;;;;;;;4.93;3.05;;;;;;;6.80;100.00;98150.97;6099828;19;21076;-71
2023/12/28 04:50:47;;;;;;;5.15;3.17;;;;;;;6.78;100.00;98156.00;6110089;19;20019;-71
2023/12/28 04:52:48;;;;;;;5.97;2.95;;;;;;;6.78;100.00;98136.75;6110633;19;20020;-71
2023/12/28 04:54:48;;;;;;;4.57;2.80;;;;;;;6.68;100.00;98141.69;6110161;19;20010;-71
2023/12/28 04:56:48;;;;;;;5.38;2.90;;;;;;;6.68;100.00;98132.63;6109595;19;20031;-71
2023/12/28 04:58:49;;;;;;;4.03;2.90;;;;;;;6.61;100.00;98144.28;6110904;19;20116;-71
2023/12/28 05:00:49;;;;;;;5.38;2.55;;;;;;;6.62;100.00;98158.81;6112223;19;20015;-71
2023/12/28 05:02:49;;;;;;;3.72;2.80;;;;;;;6.54;100.00;98160.63;6109293;19;20036;-71
2023/12/28 05:04:49;;;;;;;3.60;2.65;;;;;;;6.55;100.00;98164.19;6108721;19;20065;-71
2023/12/28 05:06:50;;;;;;;3.45;2.45;;;;;;;6.52;100.00;98181.38;6110919;19;20007;-71
2023/12/28 05:08:50;;;;;;;3.15;2.10;;;;;;;6.52;100.00;98217.88;6109688;19;20014;-71
2023/12/28 05:10:51;;;;;;;3.53;2.85;;;;;;;6.56;100.00;98212.50;6111996;19;20086;-71
2023/12/28 05:12:51;;;;;;;3.72;2.60;;;;;;;6.54;100.00;98212.03;6109607;19;20956;-71
2023/12/28 05:14:52;;;;;;;4.53;2.72;;;;;;;6.48;100.00;98193.09;6110711;19;20029;-71
2023/12/28 05:16:52;;;;;;;5.32;3.08;;;;;;;6.44;100.00;98196.88;6109223;19;20006;-71
2023/12/28 05:18:52;;;;;;;3.97;2.53;;;;;;;6.43;100.00;98209.84;6108778;19;20503;-71
2023/12/28 05:20:52;;;;;;;4.38;2.67;;;;;;;6.46;100.00;98233.09;6110656;19;20022;-71
2023/12/28 05:22:53;;;;;;;5.47;3.00;;;;;;;6.48;100.00;98250.00;6109590;19;20462;-71
2023/12/28 05:24:53;;;;;;;3.90;2.70;;;;;;;6.52;100.00;98264.63;6110840;19;20033;-71
2023/12/28 05:26:53;;;;;;;3.95;2.92;;;;;;;6.54;100.00;98289.00;6110229;19;20007;-71
2023/12/28 05:28:54;;;;;;;3.83;2.83;;;;;;;6.50;100.00;98280.66;6109974;19;20013;-71
2023/12/28 05:30:54;;;;;;;3.88;2.75;;;;;;;6.46;100.00;98271.56;6110380;19;20483;-71
2023/12/28 05:32:54;;;;;;;4.55;2.70;;;;;;;6.50;100.00;98261.44;6109617;19;20330;-71
2023/12/28 05:34:55;;;;;;;4.07;2.55;;;;;;;6.50;100.00;98261.44;6109797;19;20010;-71
2023/12/28 05:36:55;;;;;;;4.40;2.55;;;;;;;6.45;100.00;98268.00;6108744;19;20013;-71
2023/12/28 05:38:55;;;;;;;4.60;2.92;;;;;;;6.43;100.00;98272.25;6109753;19;20010;-71
2023/12/28 05:40:55;;;;;;;4.60;2.90;;;;;;;6.39;100.00;98280.41;6110857;19;20007;-71
2023/12/28 05:42:56;;;;;;;3.47;2.63;;;;;;;6.41;100.00;98275.34;6109854;19;20593;-71
2023/12/28 05:44:56;;;;;;;4.47;3.08;;;;;;;6.43;100.00;98253.00;6109607;19;20010;-71
2023/12/28 05:46:57;;;;;;;5.32;2.65;;;;;;;6.45;100.00;98257.03;6110797;19;20463;-71
2023/12/28 05:48:58;;;;;;;3.90;3.03;;;;;;;6.44;100.00;98273.84;6106691;19;20015;-71
2023/12/28 05:50:58;;;;;;;3.60;2.80;;;;;;;6.47;100.00;98271.19;6102790;19;20483;-71
2023/12/28 05:52:58;;;;;;;4.28;2.53;;;;;;;6.49;100.00;98273.59;6101542;19;20010;-71
2023/12/28 05:54:59;;;;;;;6.20;2.78;;;;;;;6.51;100.00;98270.47;6102892;19;20006;-71
2023/12/28 05:56:59;;;;;;;4.57;2.70;;;;;;;6.50;100.00;98279.88;6101310;19;20011;-71
2023/12/28 05:58:59;;;;;;;3.35;2.67;;;;;;;6.47;100.00;98273.16;6103068;19;20014;-71
2023/12/28 06:01:00;;;;;;;5.45;2.90;;;;;;;6.49;100.00;98270.84;6102391;19;20072;-71
2023/12/28 06:03:02;;;;;;;5.97;2.85;;;;;;;6.49;100.00;98273.59;6100246;19;20086;-71
2023/12/28 06:05:02;;;;;;;3.10;2.40;;;;;;;6.51;100.00;98281.47;6101679;19;20010;-71
2023/12/28 06:07:03;;;;;;;3.58;2.70;;;;;;;6.55;100.00;98283.16;6099394;19;20027;-71
2023/12/28 06:09:04;;;;;;;4.35;2.47;;;;;;;6.62;100.00;98294.34;6101665;19;20014;-71
2023/12/28 06:11:04;;;;;;;3.97;2.95;;;;;;;6.66;100.00;98284.19;6102666;19;20906;-71
2023/12/28 06:13:06;;;;;;;3.53;3.00;;;;;;;6.72;100.00;98282.78;6100237;19;20407;-71
2023/12/28 06:15:09;;;;;;;4.00;2.88;;;;;;;6.67;100.00;98283.03;6100768;19;20011;-71
2023/12/28 06:17:10;;;;;;;3.20;2.55;;;;;;;6.64;100.00;98280.22;6101631;19;20011;-71
2023/12/28 06:19:12;;;;;;;4.85;2.75;;;;;;;6.68;100.00;98286.59;6101688;19;20014;-71
2023/12/28 06:21:12;;;;;;;4.07;2.65;;;;;;;6.64;100.00;98286.53;6100038;19;20519;-71
2023/12/28 06:23:13;;;;;;;3.45;2.70;;;;;;;6.61;100.00;98281.72;6101149;19;20035;-71
2023/12/28 06:25:13;;;;;;;4.28;3.13;;;;;;;6.67;100.00;98290.50;6101416;19;20006;-71
2023/12/28 06:27:13;;;;;;;3.65;2.80;;;;;;;6.75;100.00;98287.56;6101183;19;20223;-71
2023/12/28 06:29:14;;;;;;;4.38;2.60;;;;;;;6.70;100.00;98287.03;6100738;19;20294;-71
2023/12/28 06:31:14;;;;;;;4.15;2.80;;;;;;;6.71;100.00;98286.69;6100090;19;20010;-71
2023/12/28 06:33:16;;;;;;;3.30;2.67;;;;;;;6.78;100.00;98282.50;6100924;19;20030;-71
2023/12/28 06:35:16;;;;;;;5.47;2.55;;;;;;;6.74;100.00;98291.47;6099264;19;20003;-71
2023/12/28 06:37:17;;;;;;;3.17;2.88;;;;;;;6.68;100.00;98284.63;6098579;19;19999;-71
2023/12/28 06:39:17;;;;;;;4.13;2.83;;;;;;;6.64;100.00;98303.00;6098943;19;20006;-71
2023/12/28 06:41:18;;;;;;;3.72;2.88;;;;;;;6.62;100.00;98288.00;6096936;19;20023;-71
2023/12/28 06:43:18;;;;;;;5.13;2.65;;;;;;;6.57;100.00;98291.84;6098684;19;20007;-71
2023/12/28 06:45:18;;;;;;;5.00;3.35;;;;;;;6.58;100.00;98287.94;6097800;19;20006;-71
2023/12/28 06:47:19;;;;;;;4.20;2.80;;;;;;;6.63;100.00;98293.19;6098112;19;20003;-71
2023/12/28 06:49:19;;;;;;;4.32;2.90;;;;;;;6.58;100.00;98284.41;6100160;19;20003;-71
2023/12/28 06:51:20;;;;;;;5.22;2.85;;;;;;;6.58;100.00;98289.88;6107752;19;20013;-71
2023/12/28 06:53:20;;;;;;;3.78;2.97;;;;;;;6.58;100.00;98287.13;6108951;19;20014;-72
2023/12/28 06:55:21;;;;;;;4.75;3.00;;;;;;;6.58;100.00;98278.91;6109173;19;20014;-71
2023/12/28 06:57:21;;;;;;;3.47;2.72;;;;;;;6.56;100.00;98287.50;6108126;19;20013;-71
2023/12/28 06:59:21;;;;;;;4.32;3.00;;;;;;;6.52;100.00;98300.34;6107536;19;20002;-71
2023/12/28 07:01:21;;;;;;;23.42;12.77;;;;;;;6.47;100.00;98292.38;6107382;19;20011;-71
2023/12/28 07:03:22;;;;;;;7.78;3.55;;;;;;;6.53;100.00;98292.91;6108557;19;20385;-71
2023/12/28 07:05:23;;;;;;;4.40;3.40;;;;;;;6.51;100.00;98292.47;6108237;19;20483;-71
2023/12/28 07:07:23;;;;;;;3.53;2.40;;;;;;;6.61;100.00;98294.66;6107187;19;20010;-71
2023/12/28 07:09:23;;;;;;;3.75;3.05;;;;;;;6.55;100.00;98285.91;6108646;19;20012;-72
2023/12/28 07:11:24;;;;;;;3.65;2.30;;;;;;;6.46;100.00;98290.78;6106494;19;20339;-71
2023/12/28 07:13:24;;;;;;;6.80;2.97;;;;;;;6.43;100.00;98297.78;6108214;19;20111;-71
2023/12/28 07:15:25;;;;;;;3.53;2.50;;;;;;;6.37;100.00;98290.16;6107588;19;20006;-71
2023/12/28 07:17:25;;;;;;;3.00;2.20;;;;;;;6.35;100.00;98289.72;6109120;19;20022;-71
2023/12/28 07:19:25;;;;;;;4.07;2.50;;;;;;;6.34;100.00;98294.41;6118470;19;20565;-71
2023/12/28 07:21:25;;;;;;;4.40;2.45;;;;;;;6.35;100.00;98295.22;6115182;19;20010;-71
2023/12/28 07:23:27;;;;;;;3.22;2.47;;;;;;;6.34;100.00;98297.16;6119636;19;20403;-71
2023/12/28 07:25:27;;;;;;;4.95;2.53;;;;;;;6.35;100.00;98298.75;6119474;19;20673;-71
2023/12/28 07:27:27;;;;;;;5.88;2.45;;;;;;;6.39;100.00;98318.09;6117132;19;20006;-71
2023/12/28 07:29:27;;;;;;;4.93;2.83;;;;;;;6.44;100.00;98320.56;6119709;19;20007;-71
2023/12/28 07:31:28;;;;;;;5.95;3.80;;;;;;;6.37;100.00;98314.88;6118440;19;20086;-72
2023/12/28 07:33:28;;;;;;;4.82;3.20;;;;;;;6.31;100.00;98322.63;6119870;19;20010;-71
2023/12/28 07:35:29;;;;;;;5.60;2.92;;;;;;;6.31;100.00;98316.31;6119262;19;20002;-71
2023/12/28 07:37:29;;;;;;;4.22;2.75;;;;;;;6.28;100.00;98320.56;6119176;19;20075;-71
2023/12/28 07:39:29;;;;;;;4.35;2.58;;;;;;;6.29;100.00;98313.94;6119046;19;20003;-71
2023/12/28 07:41:30;;;;;;;3.90;2.50;;;;;;;6.28;100.00;98315.06;6117384;19;20038;-71
2023/12/28 07:43:30;;;;;;;3.33;2.50;;;;;;;6.31;100.00;98316.31;6117992;19;20006;-71
2023/12/28 07:45:31;;;;;;;5.68;2.60;;;;;;;6.27;100.00;98307.16;6118583;19;20017;-71
2023/12/28 07:47:33;;;;;;;4.55;2.58;;;;;;;6.29;100.00;98311.19;6117329;19;20018;-71
2023/12/28 07:49:33;;;;;;;3.42;2.38;;;;;;;6.28;100.00;98323.28;6117077;19;20011;-71
2023/12/28 07:51:34;;;;;;;4.63;2.90;;;;;;;6.30;100.00;98328.47;6116457;19;20459;-71
2023/12/28 07:53:34;;;;;;;4.55;2.60;;;;;;;6.29;100.00;98330.41;6118297;19;20016;-71
2023/12/28 07:55:34;;;;;;;2.90;2.08;;;;;;;6.34;100.00;98323.84;6116809;19;20426;-71
2023/12/28 07:57:35;;;;;;;2.40;1.77;;;;;;;6.35;100.00;98330.94;6118087;19;20074;-71
2023/12/28 07:59:35;;;;;;;2.85;2.35;;;;;;;6.38;100.00;98335.75;6117736;19;20007;-71
2023/12/28 08:01:35;;;;;;;3.20;2.30;;;;;;;6.37;100.00;98331.38;6115608;19;20006;-71
2023/12/28 08:03:36;;;;;;;5.82;2.85;;;;;;;6.38;100.00;98327.50;6118685;19;20011;-71
2023/12/28 08:05:36;;;;;;;3.50;2.75;;;;;;;6.38;100.00;98338.50;6117145;19;20006;-71
2023/12/28 08:07:36;;;;;;;3.53;2.33;;;;;;;6.40;100.00;98333.44;6118355;19;20006;-71
2023/12/28 08:09:37;;;;;;;2.88;2.30;;;;;;;6.42;100.00;98345.66;6118591;19;20007;-71
2023/12/28 08:11:37;;;;;;;3.08;1.85;;;;;;;6.41;100.00;98335.03;6116263;19;20455;-71
2023/12/28 08:13:37;;;;;;;3.35;2.38;;;;;;;6.36;100.00;98327.03;6117873;19;20006;-71
2023/12/28 08:15:38;;;;;;;2.80;2.08;;;;;;;6.39;100.00;98340.88;6118281;19;20007;-71
2023/12/28 08:17:38;;;;;;;2.65;2.08;;;;;;;6.43;100.00;98333.50;6115734;19;20074;-71
2023/12/28 08:19:39;;;;;;;3.70;2.00;;;;;;;6.43;100.00;98343.69;6118780;19;20011;-71
2023/12/28 08:21:39;;;;;;;3.30;2.38;;;;;;;6.39;100.00;98342.84;6116490;19;20037;-71
2023/12/28 08:23:39;;;;;;;3.50;2.33;;;;;;;6.35;100.00;98337.22;6118376;19;20040;-71
2023/12/28 08:25:40;;;;;;;3.25;2.30;;;;;;;6.34;100.00;98343.06;6116800;19;20504;-71
2023/12/28 08:27:41;;;;;;;6.80;2.38;;;;;;;6.39;100.00;98351.88;6117160;19;20359;-71
2023/12/28 08:29:42;;;;;;;2.47;1.83;;;;;;;6.44;100.00;98351.59;6111202;19;20538;-71
2023/12/28 08:31:42;;;;;;;4.30;2.50;;;;;;;6.49;100.00;98358.78;6110795;19;20474;-71
2023/12/28 08:33:42;;;;;;;3.35;2.50;;;;;;;6.51;100.00;98350.97;6110711;19;20010;-71
2023/12/28 08:35:43;;;;;;;5.22;3.38;;;;;;;6.50;100.00;98354.88;6111409;19;20002;-71
2023/12/28 08:37:43;;;;;;;2.95;2.15;;;;;;;6.47;100.00;98350.09;6111852;19;20006;-72
2023/12/28 08:39:43;;;;;;;4.28;2.80;;;;;;;6.47;100.00;98344.59;6108464;19;20006;-71
2023/12/28 08:41:44;;;;;;;3.33;2.42;;;;;;;6.47;100.00;98344.59;6106993;19;20006;-72
2023/12/28 08:43:44;;;;;;;4.05;2.88;;;;;;;6.45;100.00;98342.22;6111957;19;20020;-71
2023/12/28 08:45:45;;;;;;;3.08;2.58;;;;;;;6.46;100.00;98341.06;6109033;19;20010;-71
2023/12/28 08:47:45;;;;;;;3.35;2.60;;;;;;;6.41;100.00;98341.31;6110235;19;20014;-71
2023/12/28 08:49:45;;;;;;;4.90;2.53;;;;;;;6.39;100.00;98331.84;6111450;19;20010;-71
2023/12/28 08:51:46;;;;;;;3.13;2.30;;;;;;;6.39;100.00;98345.56;6109006;19;20002;-71
2023/12/28 08:53:46;;;;;;;3.17;2.50;;;;;;;6.38;100.00;98342.03;6110439;19;20006;-71
2023/12/28 08:55:47;;;;;;;5.30;2.50;;;;;;;6.48;100.00;98325.00;6110649;19;20741;-71
2023/12/28 08:57:47;;;;;;;5.38;2.78;;;;;;;6.53;100.00;98326.69;6110614;19;20010;-71
2023/12/28 08:59:48;;;;;;;3.58;2.70;;;;;;;6.49;100.00;98312.06;6111020;19;20372;-71
2023/12/28 09:01:48;;;;;;;3.90;2.60;;;;;;;6.52;100.00;98325.09;6109001;19;20009;-71
2023/12/28 09:03:49;;;;;;;3.65;2.83;;;;;;;6.57;100.00;98333.06;6111201;19;20014;-71
2023/12/28 09:05:50;;;;;;;4.72;2.92;;;;;;;6.56;100.00;98322.44;6110307;19;20111;-71
2023/12/28 09:07:50;;;;;;;3.42;2.80;;;;;;;6.57;100.00;98324.81;6110486;19;20106;-71
2023/12/28 09:09:50;;;;;;;5.07;2.53;;;;;;;6.57;100.00;98326.78;6110474;19;20011;-71
2023/12/28 09:11:51;;;;;;;5.35;2.50;;;;;;;6.59;100.00;98333.50;6108899;19;20002;-72
2023/12/28 09:13:51;;;;;;;5.72;3.03;;;;;;;6.64;100.00;98337.97;6110470;19;20034;-71
2023/12/28 09:15:51;;;;;;;4.82;3.28;;;;;;;6.69;100.00;98332.16;6110464;19;20046;-71
2023/12/28 09:17:51;;;;;;;2.72;1.77;;;;;;;6.96;100.00;98330.47;6111074;19;20503;-71
2023/12/28 09:19:52;;;;;;;4.03;2.33;;;;;;;6.95;100.00;98343.44;6109340;19;20011;-71
2023/12/28 09:21:52;;;;;;;3.67;2.03;;;;;;;6.89;100.00;98331.09;6109871;19;20454;-71
2023/12/28 09:23:52;;;;;;;4.78;3.03;;;;;;;6.85;100.00;98340.41;6110504;19;20006;-71
2023/12/28 09:25:53;;;;;;;3.88;2.33;;;;;;;6.84;100.00;98344.31;6110732;19;20027;-71
2023/12/28 09:27:53;;;;;;;3.60;2.33;;;;;;;6.80;100.00;98338.75;6110623;19;20006;-71
2023/12/28 09:29:54;;;;;;;3.03;2.13;;;;;;;6.81;100.00;98345.84;6111039;19;20010;-71